Time;durP1;ratioP1;P1;durP2;ratioP2;P2;SDS_P1;SDS_P2;PMS_P1;PMS_P2;Temp;Humidity;BMP_temperature;BMP_pressure;BME280_temperature;BME280_humidity;BME280_pressure;Samples;Min_cycle;Max_cycle;Signal;HPM_P1;HPM_P2
2022/12/23 00:03:30;;;;;;;11.80;3.00;;;9.50;99.90;;;;;;7370207;32;20117;-61
2022/12/23 00:07:32;;;;;;;9.90;3.25;;;9.50;99.90;;;;;;7373217;32;20130;-59
2022/12/23 00:11:34;;;;;;;11.43;2.62;;;9.60;99.90;;;;;;7377374;32;20106;-59
2022/12/23 00:15:35;;;;;;;11.25;3.00;;;9.50;99.90;;;;;;7374183;32;20316;-58
2022/12/23 00:19:37;;;;;;;11.50;3.28;;;9.60;99.90;;;;;;7376306;32;20923;-59
2022/12/23 00:23:44;;;;;;;9.60;2.78;;;9.60;99.90;;;;;;7386403;32;20480;-59
2022/12/23 00:28:00;;;;;;;10.15;3.00;;;9.50;99.90;;;;;;7380290;32;20110;-59
2022/12/23 00:32:01;;;;;;;12.05;2.85;;;9.60;99.90;;;;;;7371341;32;20107;-60
2022/12/23 00:36:28;;;;;;;13.23;2.67;;;9.60;99.90;;;;;;7366011;32;20107;-61
2022/12/23 00:44:51;;;;;;;8.52;2.40;;;9.60;99.90;;;;;;7373622;32;20221;-60
2022/12/23 00:53:13;;;;;;;9.95;2.62;;;9.70;99.90;;;;;;7384302;32;20140;-59
2022/12/23 00:57:15;;;;;;;9.93;2.65;;;9.60;99.90;;;;;;7377174;32;20098;-59
2022/12/23 01:05:37;;;;;;;10.65;2.90;;;9.60;99.90;;;;;;7374013;32;20839;-59
2022/12/23 01:09:39;;;;;;;14.23;3.25;;;9.70;99.90;;;;;;7375478;32;20111;-59
2022/12/23 01:13:41;;;;;;;11.95;3.05;;;9.70;99.90;;;;;;7380972;32;20185;-59
2022/12/23 01:17:42;;;;;;;8.68;2.58;;;9.70;99.90;;;;;;7381590;32;20115;-59
2022/12/23 01:21:44;;;;;;;8.60;2.65;;;9.80;99.90;;;;;;7371928;32;20131;-59
2022/12/23 01:25:47;;;;;;;10.07;3.15;;;9.80;99.90;;;;;;7369928;32;20106;-59
2022/12/23 01:29:48;;;;;;;10.98;3.70;;;9.80;99.90;;;;;;7378660;32;20133;-59
2022/12/23 01:33:51;;;;;;;9.82;3.00;;;9.70;99.90;;;;;;7381303;32;20103;-61
2022/12/23 01:37:52;;;;;;;7.62;3.08;;;9.70;99.90;;;;;;7371251;32;20499;-59
2022/12/23 01:46:14;;;;;;;10.52;3.37;;;9.80;99.90;;;;;;7369650;32;20103;-59
2022/12/23 01:50:25;;;;;;;8.82;3.55;;;9.80;99.90;;;;;;7368820;32;20176;-60
2022/12/23 01:54:27;;;;;;;14.48;3.58;;;9.70;99.90;;;;;;7377486;32;20168;-58
2022/12/23 01:58:36;;;;;;;8.05;3.75;;;9.80;99.90;;;;;;7371767;32;20146;-59
2022/12/23 02:11:56;;;;;;;10.80;4.30;;;9.70;99.90;;;;;;7361316;32;20115;-59
2022/12/23 02:16:17;;;;;;;10.27;4.25;;;9.60;99.90;;;;;;7364655;32;20122;-59
2022/12/23 02:20:49;;;;;;;12.60;4.28;;;9.70;99.90;;;;;;7363081;32;20125;-60
2022/12/23 02:25:09;;;;;;;13.15;4.40;;;9.70;99.90;;;;;;7371398;32;20247;-59
2022/12/23 02:29:31;;;;;;;13.32;4.55;;;9.80;99.90;;;;;;7378598;32;20111;-59
2022/12/23 02:33:59;;;;;;;12.00;4.47;;;9.70;99.90;;;;;;7362780;32;20137;-59
2022/12/23 02:38:21;;;;;;;12.52;4.65;;;9.80;99.90;;;;;;7380444;32;20107;-60
2022/12/23 02:42:40;;;;;;;12.65;4.28;;;9.70;99.90;;;;;;7365190;32;20571;-59
2022/12/23 02:46:49;;;;;;;12.93;4.53;;;9.80;99.90;;;;;;7370122;32;20216;-59
2022/12/23 02:50:55;;;;;;;9.75;4.72;;;9.90;99.90;;;;;;7373494;32;20637;-61
2022/12/23 02:55:02;;;;;;;8.10;4.68;;;9.90;99.90;;;;;;7374383;32;20308;-59
2022/12/23 02:59:16;;;;;;;12.43;4.90;;;9.90;99.90;;;;;;7373129;32;20531;-59
2022/12/23 03:03:20;;;;;;;11.43;4.90;;;9.80;99.90;;;;;;7365909;32;20534;-61
2022/12/23 03:07:42;;;;;;;11.18;5.22;;;9.90;99.90;;;;;;7374163;32;20235;-60
2022/12/23 03:12:05;;;;;;;11.27;4.82;;;9.80;99.90;;;;;;7364639;32;20191;-59
2022/12/23 03:16:16;;;;;;;9.75;5.40;;;9.90;99.90;;;;;;7373281;32;20132;-58
2022/12/23 03:20:36;;;;;;;8.48;5.12;;;9.80;99.90;;;;;;7368914;32;20755;-58
2022/12/23 03:24:54;;;;;;;11.30;5.62;;;9.80;99.90;;;;;;7370118;32;20102;-59
2022/12/23 03:29:19;;;;;;;14.13;6.32;;;9.80;99.90;;;;;;7370310;32;20467;-58
2022/12/23 03:33:26;;;;;;;11.80;5.30;;;9.80;99.90;;;;;;7358072;32;20111;-58
2022/12/23 03:37:35;;;;;;;9.27;5.18;;;9.80;99.90;;;;;;7372552;32;20133;-58
2022/12/23 03:41:41;;;;;;;12.90;6.25;;;9.80;99.90;;;;;;7367041;32;20580;-58
2022/12/23 03:45:51;;;;;;;12.27;6.73;;;9.90;99.90;;;;;;7368166;32;20586;-58
2022/12/23 03:49:59;;;;;;;13.50;6.50;;;9.80;99.90;;;;;;7370155;32;20503;-60
2022/12/23 03:59:18;;;;;;;15.18;7.70;;;9.80;99.90;;;;;;7256697;32;20116;-83
2022/12/23 04:03:46;;;;;;;16.83;8.02;;;9.80;99.90;;;;;;7285459;32;20171;-83
2022/12/23 04:07:52;;;;;;;15.15;7.45;;;9.80;99.90;;;;;;7264146;32;20116;-83
2022/12/23 04:11:56;;;;;;;14.93;7.97;;;9.80;99.90;;;;;;7256497;32;20517;-82
2022/12/23 04:16:00;;;;;;;15.05;7.93;;;9.80;99.90;;;;;;7259380;32;20116;-82
2022/12/23 04:20:03;;;;;;;13.85;7.25;;;9.80;99.90;;;;;;7272412;32;20136;-82
2022/12/23 04:24:05;;;;;;;15.45;8.23;;;9.80;99.90;;;;;;7265308;32;20223;-83
2022/12/23 04:28:07;;;;;;;15.88;7.57;;;9.80;99.90;;;;;;7263406;32;20112;-83
2022/12/23 04:32:09;;;;;;;17.15;8.38;;;9.70;99.90;;;;;;7266465;32;20135;-82
2022/12/23 04:36:12;;;;;;;14.57;8.23;;;9.70;99.90;;;;;;7265244;32;20123;-82
2022/12/23 04:40:14;;;;;;;13.85;8.20;;;9.70;99.90;;;;;;7265090;32;20182;-82
2022/12/23 04:44:16;;;;;;;13.85;8.48;;;9.70;99.90;;;;;;7277376;32;20124;-82
2022/12/23 04:48:18;;;;;;;14.80;8.13;;;9.70;99.90;;;;;;7267031;32;20175;-82
2022/12/23 04:52:21;;;;;;;23.10;8.50;;;9.60;99.90;;;;;;7279403;26;20564;-60
2022/12/23 04:56:22;;;;;;;17.60;8.35;;;9.70;99.90;;;;;;7295126;32;20607;-60
2022/12/23 05:00:24;;;;;;;17.00;9.25;;;9.70;99.90;;;;;;7309808;32;20626;-60
2022/12/23 05:04:26;;;;;;;16.10;8.95;;;9.70;99.90;;;;;;7309587;32;20553;-60
2022/12/23 05:08:28;;;;;;;15.73;7.95;;;9.60;99.90;;;;;;7307134;32;20149;-57
2022/12/23 05:12:30;;;;;;;16.27;8.18;;;9.60;99.90;;;;;;7304889;32;20147;-59
2022/12/23 05:16:32;;;;;;;12.63;7.35;;;9.70;99.90;;;;;;7300088;32;20104;-59
2022/12/23 05:20:34;;;;;;;16.50;7.28;;;9.60;99.90;;;;;;7305916;32;20142;-60
2022/12/23 05:24:36;;;;;;;13.35;6.12;;;9.60;99.90;;;;;;7308818;32;20099;-60
2022/12/23 05:28:37;;;;;;;13.90;6.55;;;9.60;99.90;;;;;;7310664;32;20170;-60
2022/12/23 05:32:39;;;;;;;14.05;6.10;;;9.60;99.90;;;;;;7307974;32;20244;-60
2022/12/23 05:36:41;;;;;;;11.77;5.47;;;9.60;99.90;;;;;;7307137;32;20108;-60
2022/12/23 05:40:42;;;;;;;12.20;6.35;;;9.60;99.90;;;;;;7306630;32;20241;-60
2022/12/23 05:44:45;;;;;;;14.57;6.78;;;9.60;99.90;;;;;;7310235;32;20174;-60
2022/12/23 05:48:46;;;;;;;13.52;6.22;;;9.60;99.90;;;;;;7305477;32;20108;-60
2022/12/23 05:52:48;;;;;;;14.98;6.25;;;9.50;99.90;;;;;;7305021;32;20472;-60
2022/12/23 05:56:50;;;;;;;12.90;5.78;;;9.60;99.90;;;;;;7308066;32;20103;-60
2022/12/23 06:00:52;;;;;;;14.57;6.40;;;9.60;99.90;;;;;;7308013;32;20151;-60
2022/12/23 06:04:54;;;;;;;11.68;5.47;;;9.60;99.90;;;;;;7307458;32;20127;-60
2022/12/23 06:08:55;;;;;;;15.73;6.40;;;9.60;99.90;;;;;;7306654;32;20112;-60
2022/12/23 06:13:00;;;;;;;14.20;5.70;;;9.60;99.90;;;;;;7293641;32;20120;-60
2022/12/23 06:17:02;;;;;;;13.02;5.65;;;9.60;99.90;;;;;;7296145;32;20627;-60
2022/12/23 06:21:04;;;;;;;12.82;5.70;;;9.60;99.90;;;;;;7305693;32;20112;-60
2022/12/23 06:25:07;;;;;;;9.27;5.85;;;9.60;99.90;;;;;;7304331;32;20138;-60
2022/12/23 06:29:09;;;;;;;15.48;6.43;;;9.60;99.90;;;;;;7305828;32;20107;-59
2022/12/23 06:33:11;;;;;;;12.88;6.50;;;9.60;99.90;;;;;;7304776;32;20108;-60
2022/12/23 06:37:13;;;;;;;11.85;6.32;;;9.60;99.90;;;;;;7306736;32;20108;-59
2022/12/23 06:41:15;;;;;;;11.77;6.90;;;9.60;99.90;;;;;;7306387;32;20157;-59
2022/12/23 06:45:16;;;;;;;13.82;6.78;;;9.60;99.90;;;;;;7304768;32;20154;-60
2022/12/23 06:49:18;;;;;;;10.15;6.75;;;9.60;99.90;;;;;;7305983;32;20134;-60
2022/12/23 06:53:20;;;;;;;12.23;6.20;;;9.60;99.90;;;;;;7302786;32;20209;-60
2022/12/23 06:57:21;;;;;;;25.45;16.45;;;9.60;99.90;;;;;;7305599;32;20138;-60
2022/12/23 07:01:23;;;;;;;13.68;7.70;;;9.50;99.90;;;;;;7303821;32;20107;-61
2022/12/23 07:05:25;;;;;;;18.35;8.50;;;9.50;99.90;;;;;;7306330;32;20165;-60
2022/12/23 07:09:31;;;;;;;17.37;8.75;;;9.40;99.90;;;;;;7305245;32;20266;-60
2022/12/23 07:13:33;;;;;;;14.65;7.65;;;9.50;99.90;;;;;;7306426;32;20120;-58
2022/12/23 07:17:35;;;;;;;11.30;7.30;;;9.50;99.90;;;;;;7305171;32;20108;-58
2022/12/23 07:21:37;;;;;;;14.20;7.65;;;9.60;99.90;;;;;;7303468;32;20136;-59
2022/12/23 07:25:39;;;;;;;15.00;7.53;;;9.50;99.90;;;;;;7302184;32;20153;-59
2022/12/23 07:29:41;;;;;;;14.18;7.97;;;9.60;99.90;;;;;;7299909;32;20120;-61
2022/12/23 07:33:43;;;;;;;16.52;8.38;;;9.50;99.90;;;;;;7297081;32;20234;-59
2022/12/23 07:37:49;;;;;;;13.13;7.57;;;9.50;99.90;;;;;;7306293;32;20522;-61
2022/12/23 07:41:51;;;;;;;16.00;7.68;;;9.60;99.90;;;;;;7304488;32;20103;-62
2022/12/23 07:46:12;;;;;;;12.73;7.30;;;9.60;99.90;;;;;;7304667;32;20123;-62
2022/12/23 07:50:16;;;;;;;16.73;8.63;;;9.60;99.90;;;;;;7302879;32;20116;-62
2022/12/23 07:54:17;;;;;;;17.73;7.93;;;9.50;99.90;;;;;;7303852;32;20112;-62
2022/12/23 07:58:19;;;;;;;15.95;8.30;;;9.50;99.90;;;;;;7290106;32;20108;-60
2022/12/23 08:02:23;;;;;;;19.65;8.30;;;9.50;99.90;;;;;;7309413;32;20127;-61
2022/12/23 08:06:26;;;;;;;16.80;8.57;;;9.50;99.90;;;;;;7307728;32;20120;-61
2022/12/23 08:10:27;;;;;;;17.10;8.55;;;9.50;99.90;;;;;;7311431;32;20208;-60
2022/12/23 08:14:29;;;;;;;12.95;7.20;;;9.50;99.90;;;;;;7311944;32;20103;-60
2022/12/23 08:18:34;;;;;;;15.48;8.50;;;9.50;99.90;;;;;;7309101;32;20115;-61
2022/12/23 08:22:36;;;;;;;16.00;8.27;;;9.60;99.90;;;;;;7312014;32;20105;-61
2022/12/23 08:26:37;;;;;;;14.52;8.77;;;9.60;99.90;;;;;;7310293;32;20512;-62
2022/12/23 08:30:39;;;;;;;14.85;9.25;;;9.60;99.90;;;;;;7306023;32;20440;-62
2022/12/23 08:34:41;;;;;;;13.77;8.10;;;9.70;99.90;;;;;;7291011;32;20230;-63
2022/12/23 08:38:44;;;;;;;17.08;8.98;;;9.60;99.90;;;;;;7293031;32;20971;-63
2022/12/23 08:42:45;;;;;;;18.15;10.10;;;9.70;99.90;;;;;;7307392;32;20627;-61
2022/12/23 08:46:47;;;;;;;20.37;10.07;;;9.60;99.90;;;;;;7303098;32;20130;-62
2022/12/23 08:50:49;;;;;;;18.42;9.57;;;9.70;99.90;;;;;;7300705;32;20136;-63
2022/12/23 08:54:51;;;;;;;17.33;10.45;;;9.70;99.90;;;;;;7299136;32;20203;-64
2022/12/23 08:58:54;;;;;;;21.55;12.23;;;9.70;99.90;;;;;;7303261;32;20292;-61
2022/12/23 09:02:55;;;;;;;18.65;12.63;;;9.70;99.90;;;;;;7305517;32;20194;-64
2022/12/23 09:06:57;;;;;;;21.55;13.25;;;9.70;99.90;;;;;;7302543;32;20136;-62
2022/12/23 09:11:00;;;;;;;23.67;12.50;;;9.60;99.90;;;;;;7307216;32;20116;-62
2022/12/23 09:15:01;;;;;;;24.67;13.30;;;9.70;99.90;;;;;;7307892;32;20116;-62
2022/12/23 09:19:03;;;;;;;20.60;12.37;;;9.70;99.90;;;;;;7307413;32;20127;-63
2022/12/23 09:23:05;;;;;;;14.98;10.63;;;9.70;99.90;;;;;;7306601;32;20108;-62
2022/12/23 09:27:07;;;;;;;17.87;10.07;;;9.70;99.90;;;;;;7310615;32;20108;-62
2022/12/23 09:31:10;;;;;;;17.65;9.63;;;9.70;99.90;;;;;;7304508;32;20107;-62
2022/12/23 09:35:12;;;;;;;15.48;8.98;;;9.60;99.90;;;;;;7305514;32;20208;-62
2022/12/23 09:39:15;;;;;;;17.30;8.80;;;9.70;99.90;;;;;;7303086;32;20133;-62
2022/12/23 09:43:33;;;;;;;13.70;8.05;;;9.80;99.90;;;;;;7304545;32;20203;-61
2022/12/23 09:47:36;;;;;;;15.52;7.95;;;9.90;99.90;;;;;;7300376;32;20100;-63
2022/12/23 09:51:38;;;;;;;12.40;7.28;;;9.80;99.90;;;;;;7304777;32;20237;-62
2022/12/23 09:55:45;;;;;;;16.30;8.40;;;9.90;99.90;;;;;;7307267;32;20302;-62
2022/12/23 10:00:18;;;;;;;16.70;9.07;;;9.90;99.90;;;;;;7304809;32;20124;-61
2022/12/23 10:04:35;;;;;;;15.25;9.02;;;9.80;99.90;;;;;;7287633;32;20188;-61
2022/12/23 10:08:43;;;;;;;13.38;7.90;;;9.70;99.90;;;;;;7299638;32;20112;-60
2022/12/23 10:12:48;;;;;;;14.98;7.40;;;9.80;99.90;;;;;;7301196;32;20514;-60
2022/12/23 10:16:57;;;;;;;19.80;8.20;;;9.70;99.90;;;;;;7298937;32;20203;-61
2022/12/23 10:21:04;;;;;;;13.75;7.93;;;9.90;99.90;;;;;;7297702;32;20223;-61
2022/12/23 10:25:36;;;;;;;17.02;8.65;;;9.90;99.90;;;;;;7298823;32;20213;-62
2022/12/23 10:29:39;;;;;;;15.30;8.70;;;9.90;99.90;;;;;;7291494;32;20104;-61
2022/12/23 10:34:05;;;;;;;14.63;8.77;;;9.80;99.90;;;;;;7302476;32;20099;-61
2022/12/23 10:38:22;;;;;;;15.45;8.93;;;9.80;99.90;;;;;;7303033;32;20207;-61
2022/12/23 10:42:31;;;;;;;12.30;7.65;;;9.90;99.90;;;;;;7300522;32;20559;-61
2022/12/23 10:46:42;;;;;;;11.20;7.32;;;10.00;99.90;;;;;;7304219;32;20123;-61
2022/12/23 10:51:06;;;;;;;13.05;7.65;;;10.10;99.90;;;;;;7302159;32;20130;-61
2022/12/23 10:55:28;;;;;;;12.48;7.18;;;10.20;99.90;;;;;;7303894;32;20249;-61
2022/12/23 10:59:35;;;;;;;10.25;7.35;;;10.20;99.90;;;;;;7303145;32;20171;-61
2022/12/23 11:03:42;;;;;;;12.52;7.20;;;10.20;99.90;;;;;;7293350;32;20323;-62
2022/12/23 11:07:45;;;;;;;;;;;10.20;99.90;;;;;;7301784;32;20119;-62
2022/12/23 11:12:04;;;;;;;12.02;7.12;;;10.20;99.90;;;;;;7287639;32;20080;-61
2022/12/23 11:16:19;;;;;;;10.57;6.97;;;10.10;99.90;;;;;;7304763;32;20096;-61
2022/12/23 11:20:21;;;;;;;11.38;6.40;;;10.00;99.90;;;;;;7303195;32;20262;-62
2022/12/23 11:24:25;;;;;;;7.32;5.80;;;10.00;99.90;;;;;;7300401;32;20100;-62
2022/12/23 11:28:27;;;;;;;10.27;6.37;;;10.00;99.90;;;;;;7305618;32;20125;-62
2022/12/23 11:32:29;;;;;;;10.23;6.30;;;9.90;99.90;;;;;;7301557;32;20108;-61
2022/12/23 11:36:32;;;;;;;10.35;6.12;;;9.90;99.90;;;;;;7307904;32;21130;-62
2022/12/23 11:40:36;;;;;;;9.63;5.87;;;9.90;99.90;;;;;;7302848;32;20135;-63
2022/12/23 11:44:42;;;;;;;8.10;5.93;;;9.80;99.90;;;;;;7302732;32;20096;-62
2022/12/23 11:48:45;;;;;;;8.00;4.90;;;9.90;99.90;;;;;;7304471;32;20092;-61
2022/12/23 11:53:03;;;;;;;8.75;5.00;;;9.90;99.90;;;;;;7304597;32;20140;-61
2022/12/23 11:57:14;;;;;;;7.32;5.37;;;9.90;99.90;;;;;;7296866;32;20238;-62
2022/12/23 12:01:19;;;;;;;8.07;4.50;;;9.90;99.90;;;;;;7302395;32;20275;-61
2022/12/23 12:05:37;;;;;;;6.47;4.03;;;10.10;99.90;;;;;;7303231;32;20183;-60
2022/12/23 12:09:40;;;;;;;5.43;3.53;;;10.10;99.90;;;;;;7303791;32;20115;-60
2022/12/23 12:13:52;;;;;;;5.35;3.10;;;10.00;99.90;;;;;;7301448;32;20100;-60
2022/12/23 12:17:56;;;;;;;6.90;3.40;;;9.90;99.90;;;;;;7296669;32;20679;-60
2022/12/23 12:22:03;;;;;;;8.82;3.75;;;9.90;99.90;;;;;;7300641;32;20564;-62
2022/12/23 12:26:34;;;;;;;5.50;3.62;;;9.90;99.90;;;;;;7304109;32;20176;-61
2022/12/23 12:30:42;;;;;;;13.00;4.70;;;9.80;99.90;;;;;;7305000;32;20134;-61
2022/12/23 12:35:03;;;;;;;7.15;4.43;;;9.80;99.90;;;;;;7302293;32;20104;-60
2022/12/23 12:39:14;;;;;;;9.32;4.65;;;9.70;99.90;;;;;;7300375;32;20104;-60
2022/12/23 12:43:30;;;;;;;9.27;4.72;;;9.70;99.90;;;;;;7300990;32;20119;-60
2022/12/23 12:47:42;;;;;;;10.07;4.37;;;9.70;99.90;;;;;;7298248;32;20673;-60
2022/12/23 12:52:11;;;;;;;9.70;4.40;;;9.60;99.90;;;;;;7304082;32;20096;-60
2022/12/23 12:56:43;;;;;;;7.70;4.18;;;9.60;99.90;;;;;;7301236;32;20103;-60
2022/12/23 13:00:56;;;;;;;8.80;4.32;;;9.50;99.90;;;;;;7296983;32;20194;-57
2022/12/23 13:05:29;;;;;;;7.97;3.87;;;9.50;99.90;;;;;;7302580;32;20121;-61
2022/12/23 13:09:50;;;;;;;7.10;3.30;;;9.40;99.90;;;;;;7298204;32;20191;-62
2022/12/23 13:14:02;;;;;;;6.40;3.20;;;9.40;99.90;;;;;;7300437;32;20123;-61
2022/12/23 13:18:33;;;;;;;5.07;2.70;;;9.40;99.90;;;;;;7300649;32;20159;-60
2022/12/23 13:22:37;;;;;;;4.75;2.70;;;9.40;99.90;;;;;;7301688;32;20890;-61
2022/12/23 13:26:51;;;;;;;6.12;2.25;;;9.30;99.90;;;;;;7305679;32;20118;-61
2022/12/23 13:31:03;;;;;;;6.65;2.50;;;9.30;99.90;;;;;;7300532;32;20505;-61
2022/12/23 13:35:11;;;;;;;5.25;2.62;;;9.20;99.90;;;;;;7301082;32;20122;-61
2022/12/23 13:39:41;;;;;;;5.97;1.83;;;9.20;99.90;;;;;;7294591;32;20564;-62
2022/12/23 13:43:46;;;;;;;4.65;1.65;;;9.10;99.90;;;;;;7303272;32;20123;-60
2022/12/23 13:47:54;;;;;;;4.93;2.20;;;9.10;99.90;;;;;;7296517;32;20241;-63
2022/12/23 13:52:29;;;;;;;6.35;1.87;;;9.10;99.90;;;;;;7303217;32;20150;-61
2022/12/23 13:56:59;;;;;;;4.07;1.40;;;9.10;99.90;;;;;;7301405;32;20895;-62
2022/12/23 14:01:07;;;;;;;2.95;1.48;;;9.20;99.90;;;;;;7299398;32;20689;-60
2022/12/23 14:05:29;;;;;;;3.47;1.55;;;9.20;99.90;;;;;;7295971;32;20134;-60
2022/12/23 14:09:35;;;;;;;2.65;1.52;;;9.20;99.90;;;;;;7301994;32;20199;-61
2022/12/23 14:13:50;;;;;;;3.20;1.90;;;9.10;99.90;;;;;;7310076;32;20581;-61
2022/12/23 14:18:11;;;;;;;5.85;2.25;;;9.00;99.90;;;;;;7308584;32;20203;-61
2022/12/23 14:22:29;;;;;;;4.35;1.77;;;9.00;99.90;;;;;;7309811;32;20350;-60
2022/12/23 14:26:58;;;;;;;2.10;1.48;;;9.10;99.90;;;;;;7309308;32;20145;-62
2022/12/23 14:31:04;;;;;;;4.18;2.15;;;9.10;99.90;;;;;;7310217;32;20538;-62
2022/12/23 14:35:23;;;;;;;1.50;1.02;;;9.10;99.90;;;;;;7309725;32;20706;-60
2022/12/23 14:39:32;;;;;;;3.10;1.25;;;9.20;99.90;;;;;;7309121;32;20141;-60
2022/12/23 14:43:43;;;;;;;3.05;1.50;;;9.30;99.90;;;;;;7309622;32;20251;-62
2022/12/23 14:47:45;;;;;;;6.53;4.82;;;9.30;99.90;;;;;;7308437;32;20212;-61
2022/12/23 14:51:50;;;;;;;2.25;1.37;;;9.40;99.90;;;;;;7309557;32;20169;-62
2022/12/23 14:56:06;;;;;;;1.87;1.00;;;9.40;99.90;;;;;;7307915;32;20123;-62
2022/12/23 15:00:09;;;;;;;3.45;1.30;;;9.40;99.90;;;;;;7300329;32;20205;-60
2022/12/23 15:04:28;;;;;;;2.83;1.90;;;9.50;99.90;;;;;;7292959;32;20214;-62
2022/12/23 15:08:37;;;;;;;4.12;2.25;;;9.60;99.90;;;;;;7292446;32;20126;-60
2022/12/23 15:12:41;;;;;;;2.85;1.90;;;9.70;99.90;;;;;;7305688;32;20859;-60
2022/12/23 15:16:45;;;;;;;3.62;2.30;;;9.80;99.90;;;;;;7291640;32;20149;-61
2022/12/23 15:21:08;;;;;;;6.00;2.90;;;9.80;99.90;;;;;;7302219;32;20124;-61
2022/12/23 15:25:42;;;;;;;4.30;3.22;;;9.90;99.90;;;;;;7303593;32;20191;-61
2022/12/23 15:29:49;;;;;;;4.45;3.58;;;9.90;99.90;;;;;;7287684;32;20104;-61
2022/12/23 15:33:51;;;;;;;;;;;10.00;99.90;;;;;;7299570;32;20191;-62
2022/12/23 15:38:05;;;;;;;5.62;5.03;;;9.90;99.90;;;;;;7302669;32;20007;-59
2022/12/23 15:42:21;;;;;;;5.87;4.75;;;9.90;99.90;;;;;;7307468;32;20154;-59
2022/12/23 15:46:23;;;;;;;6.22;4.57;;;10.10;99.90;;;;;;7304348;32;20192;-60
2022/12/23 15:50:39;;;;;;;4.53;3.97;;;10.10;99.90;;;;;;7300374;32;20531;-61
2022/12/23 15:54:50;;;;;;;5.00;4.12;;;10.10;99.90;;;;;;7304305;32;20092;-60
2022/12/23 15:58:55;;;;;;;5.40;4.05;;;10.10;99.90;;;;;;7301251;32;20225;-60
2022/12/23 16:02:57;;;;;;;6.70;4.07;;;10.40;99.90;;;;;;7304761;32;20100;-60
2022/12/23 16:07:03;;;;;;;4.40;3.50;;;10.30;99.90;;;;;;7297648;32;20858;-60
2022/12/23 16:11:17;;;;;;;6.93;3.78;;;10.50;99.90;;;;;;7301158;32;20118;-60
2022/12/23 16:15:31;;;;;;;5.03;3.25;;;10.60;99.90;;;;;;7290687;32;20123;-59
2022/12/23 16:19:49;;;;;;;6.10;3.95;;;10.80;99.90;;;;;;7300938;32;20118;-59
2022/12/23 16:23:53;;;;;;;6.95;2.72;;;10.80;99.90;;;;;;7303240;32;20187;-59
2022/12/23 16:28:03;;;;;;;5.47;2.60;;;11.00;99.90;;;;;;7303653;32;20168;-60
2022/12/23 16:32:13;;;;;;;3.40;1.95;;;11.20;99.90;;;;;;7308025;32;20120;-61
2022/12/23 16:36:19;;;;;;;4.15;2.10;;;11.30;99.90;;;;;;7307917;32;20810;-60
2022/12/23 16:40:23;;;;;;;3.22;1.50;;;11.40;99.90;;;;;;7306476;32;20219;-60
2022/12/23 16:44:24;;;;;;;2.90;1.40;;;11.50;99.90;;;;;;7305765;32;20104;-59
2022/12/23 16:48:38;;;;;;;3.92;1.30;;;11.60;99.90;;;;;;7306407;32;20108;-61
2022/12/23 16:52:40;;;;;;;3.75;2.10;;;11.60;99.90;;;;;;7308087;32;20108;-60
2022/12/23 16:56:45;;;;;;;2.35;1.20;;;11.70;99.90;;;;;;7309336;32;20096;-61
2022/12/23 17:00:47;;;;;;;4.32;1.50;;;11.80;99.90;;;;;;7308555;32;20253;-59
2022/12/23 17:04:50;;;;;;;2.47;1.45;;;11.90;99.90;;;;;;7309756;32;20108;-60
2022/12/23 17:08:52;;;;;;;4.57;1.42;;;11.90;99.90;;;;;;7304688;32;20881;-60
2022/12/23 17:12:53;;;;;;;5.22;1.25;;;11.90;99.90;;;;;;7292490;32;20108;-59
2022/12/23 17:16:55;;;;;;;4.00;1.48;;;11.90;99.90;;;;;;7309371;32;20237;-59
2022/12/23 17:20:58;;;;;;;5.45;1.67;;;11.90;99.90;;;;;;7311578;32;20100;-59
2022/12/23 17:25:00;;;;;;;5.60;1.85;;;11.90;99.90;;;;;;7309460;32;20112;-60
2022/12/23 17:29:03;;;;;;;5.03;1.50;;;11.80;99.90;;;;;;7306979;32;20203;-61
2022/12/23 17:33:13;;;;;;;5.82;2.10;;;11.80;99.90;;;;;;7306468;32;20104;-58
2022/12/23 17:37:20;;;;;;;3.78;1.12;;;11.80;99.90;;;;;;7308898;32;20191;-58
2022/12/23 17:41:30;;;;;;;4.32;1.50;;;11.80;99.90;;;;;;7306359;32;20255;-58
2022/12/23 17:45:32;;;;;;;7.50;1.55;;;11.80;99.90;;;;;;7310342;32;20702;-59
2022/12/23 17:49:34;;;;;;;7.12;1.62;;;11.80;99.90;;;;;;7307326;32;20705;-58
2022/12/23 17:53:35;;;;;;;7.50;1.75;;;11.80;99.90;;;;;;7307869;32;20752;-60
2022/12/23 17:57:38;;;;;;;10.10;1.98;;;11.80;99.90;;;;;;7308083;32;21918;-59
2022/12/23 18:01:39;;;;;;;12.20;1.87;;;11.70;99.90;;;;;;7309166;32;20115;-59
2022/12/23 18:05:42;;;;;;;10.60;2.22;;;11.70;99.90;;;;;;7308532;32;20122;-62
2022/12/23 18:09:44;;;;;;;12.37;1.90;;;11.60;99.90;;;;;;7304135;32;20246;-59
2022/12/23 18:13:47;;;;;;;10.93;1.90;;;11.60;99.90;;;;;;7297654;32;20100;-59
2022/12/23 18:17:50;;;;;;;11.38;1.87;;;11.50;99.90;;;;;;7304985;32;20130;-59
2022/12/23 18:21:52;;;;;;;12.10;3.15;;;11.50;99.90;;;;;;7306121;32;20253;-59
2022/12/23 18:25:55;;;;;;;11.02;2.33;;;11.40;99.90;;;;;;7305853;32;20100;-58
2022/12/23 18:29:56;;;;;;;11.68;2.20;;;11.30;99.90;;;;;;7307500;32;20097;-59
2022/12/23 18:34:01;;;;;;;16.30;3.00;;;11.30;99.90;;;;;;7307450;32;20108;-58
2022/12/23 18:38:03;;;;;;;14.50;2.90;;;11.20;99.90;;;;;;7305284;32;20107;-59
2022/12/23 18:42:04;;;;;;;16.90;2.67;;;11.30;99.90;;;;;;7306283;32;20095;-59
2022/12/23 18:46:06;;;;;;;14.27;2.58;;;11.30;99.90;;;;;;7302845;32;20126;-59
2022/12/23 18:50:08;;;;;;;14.15;3.08;;;11.30;99.90;;;;;;7294310;32;20781;-59
2022/12/23 18:54:16;;;;;;;15.07;3.00;;;11.30;99.90;;;;;;7302912;32;20130;-58
2022/12/23 18:58:19;;;;;;;15.38;2.97;;;11.30;99.90;;;;;;7304847;32;20138;-59
2022/12/23 19:02:21;;;;;;;13.00;3.10;;;11.30;99.90;;;;;;7301335;32;20108;-60
2022/12/23 19:06:23;;;;;;;15.88;3.58;;;11.20;99.90;;;;;;7298397;32;20464;-59
2022/12/23 19:10:27;;;;;;;20.42;3.55;;;11.30;99.90;;;;;;7303615;32;20249;-59
2022/12/23 19:14:28;;;;;;;16.33;2.97;;;11.20;99.90;;;;;;7298996;32;20119;-61
2022/12/23 19:18:30;;;;;;;20.10;3.53;;;11.20;99.90;;;;;;7298837;32;20194;-59
2022/12/23 19:22:32;;;;;;;23.05;3.92;;;11.20;99.90;;;;;;7300403;32;20199;-59
2022/12/23 19:26:33;;;;;;;17.67;3.08;;;11.10;99.90;;;;;;7296404;32;20179;-59
2022/12/23 19:30:36;;;;;;;26.60;4.70;;;11.10;99.90;;;;;;7295741;32;20285;-59
2022/12/23 19:34:37;;;;;;;24.42;3.97;;;11.10;99.90;;;;;;7296390;32;20133;-60
2022/12/23 19:38:39;;;;;;;18.10;3.78;;;11.20;99.90;;;;;;7295857;32;20104;-59
2022/12/23 19:42:41;;;;;;;18.65;4.05;;;11.10;99.90;;;;;;7296602;32;20309;-61
2022/12/23 19:46:43;;;;;;;28.30;4.10;;;11.20;99.90;;;;;;7293730;32;20154;-60
2022/12/23 19:50:45;;;;;;;22.70;4.45;;;11.10;99.90;;;;;;7299638;32;20096;-60
2022/12/23 19:54:46;;;;;;;24.50;3.67;;;11.10;99.90;;;;;;7294602;32;20125;-59
2022/12/23 19:58:48;;;;;;;28.08;4.12;;;11.20;99.90;;;;;;7301254;32;20501;-59
2022/12/23 20:02:50;;;;;;;24.87;3.72;;;11.20;99.90;;;;;;7306534;32;20171;-58
2022/12/23 20:06:59;;;;;;;21.70;3.80;;;11.20;99.90;;;;;;7302385;32;20092;-59
2022/12/23 20:11:05;;;;;;;21.92;3.85;;;11.20;99.90;;;;;;7302917;32;20590;-61
2022/12/23 20:15:08;;;;;;;20.43;3.17;;;11.20;99.90;;;;;;7307436;32;20521;-59
2022/12/23 20:19:10;;;;;;;16.85;3.80;;;11.20;99.90;;;;;;7303486;32;20122;-59
2022/12/23 20:23:12;;;;;;;23.20;4.65;;;11.20;99.90;;;;;;7303216;32;20195;-59
2022/12/23 20:27:13;;;;;;;22.75;3.30;;;11.30;99.90;;;;;;7307273;32;20104;-59
2022/12/23 20:31:23;;;;;;;18.02;3.80;;;11.20;99.90;;;;;;7307545;32;20536;-59
2022/12/23 20:35:25;;;;;;;19.42;3.80;;;11.20;99.90;;;;;;7300285;32;20146;-59
2022/12/23 20:39:26;;;;;;;22.73;3.60;;;11.10;99.90;;;;;;7296209;32;20136;-60
2022/12/23 20:43:28;;;;;;;22.33;3.92;;;11.20;99.90;;;;;;7298519;32;22032;-60
2022/12/23 20:47:30;;;;;;;18.70;3.70;;;11.20;99.90;;;;;;7302807;32;20092;-59
2022/12/23 20:51:31;;;;;;;18.58;3.47;;;11.20;99.90;;;;;;7305133;32;20170;-60
2022/12/23 20:55:33;;;;;;;23.67;4.28;;;11.20;99.90;;;;;;7299673;32;20766;-61
2022/12/23 20:59:35;;;;;;;19.60;3.35;;;11.20;99.90;;;;;;7299498;32;20108;-60
2022/12/23 21:03:37;;;;;;;22.73;4.20;;;11.10;99.90;;;;;;7303921;32;20123;-60
2022/12/23 21:07:39;;;;;;;20.85;4.07;;;11.20;99.90;;;;;;7296724;32;20215;-60
2022/12/23 21:11:42;;;;;;;24.48;3.90;;;11.10;99.90;;;;;;7306272;32;20126;-60
2022/12/23 21:15:44;;;;;;;25.50;5.18;;;11.10;99.90;;;;;;7299303;32;20539;-60
2022/12/23 21:19:46;;;;;;;23.12;4.40;;;11.10;99.90;;;;;;7303544;32;20100;-60
2022/12/23 21:23:48;;;;;;;21.45;3.62;;;11.10;99.90;;;;;;7302849;32;20118;-60
2022/12/23 21:27:50;;;;;;;24.90;3.95;;;11.10;99.90;;;;;;7300047;32;20130;-60
2022/12/23 21:31:52;;;;;;;20.25;3.33;;;11.10;99.90;;;;;;7305415;32;20096;-60
2022/12/23 21:35:54;;;;;;;18.92;3.87;;;11.20;99.90;;;;;;7305459;32;20506;-60
2022/12/23 21:39:55;;;;;;;22.25;3.53;;;11.10;99.90;;;;;;7305157;32;20153;-60
2022/12/23 21:43:58;;;;;;;13.77;3.00;;;11.00;99.90;;;;;;7301108;32;20095;-60
2022/12/23 21:48:00;;;;;;;25.15;3.58;;;10.90;99.90;;;;;;7298925;32;20123;-60
2022/12/23 21:52:02;;;;;;;22.70;2.87;;;10.90;99.90;;;;;;7300905;32;20092;-60
2022/12/23 21:56:06;;;;;;;21.95;3.25;;;10.90;99.90;;;;;;7303814;32;20536;-60
2022/12/23 22:00:08;;;;;;;26.52;3.55;;;10.90;99.90;;;;;;7295567;32;20100;-59